createdAt,value
2022-09-06T00:01:18.621Z,7.63
2022-09-06T00:03:48.443Z,7.30
2022-09-06T00:06:17.700Z,7.18
2022-09-06T00:08:45.742Z,5.28
2022-09-06T00:11:13.998Z,5.50
2022-09-06T00:13:40.724Z,6.55
2022-09-06T00:16:20.466Z,8.25
2022-09-06T00:18:47.785Z,6.90
2022-09-06T00:21:23.964Z,8.15
2022-09-06T00:23:51.367Z,6.20
2022-09-06T00:26:18.920Z,5.60
2022-09-06T00:28:48.679Z,7.13
2022-09-06T00:31:35.446Z,7.35
2022-09-06T00:34:02.754Z,7.55
2022-09-06T00:36:29.853Z,6.93
2022-09-06T00:38:56.764Z,8.93
2022-09-06T00:41:23.428Z,7.20
2022-09-06T00:43:50.159Z,8.05
2022-09-06T00:46:23.073Z,7.45
2022-09-06T00:48:57.615Z,6.93
2022-09-06T00:51:28.564Z,8.20
2022-09-06T00:53:55.769Z,6.95
2022-09-06T00:56:23.465Z,6.63
2022-09-06T00:58:50.474Z,6.88
2022-09-06T01:01:17.544Z,7.28
2022-09-06T01:03:44.400Z,6.15
2022-09-06T01:06:33.884Z,6.75
2022-09-06T01:09:25.254Z,7.85
2022-09-06T01:12:18.661Z,6.65
2022-09-06T01:21:37.728Z,7.40
2022-09-06T01:24:42.936Z,6.35
2022-09-06T01:27:27.917Z,6.65
2022-09-06T01:30:07.196Z,7.22
2022-09-06T01:32:42.742Z,8.05
2022-09-06T01:35:30.548Z,6.88
2022-09-06T01:37:57.718Z,6.47
2022-09-06T01:40:24.386Z,6.15
2022-09-06T01:42:53.487Z,6.43
2022-09-06T01:45:29.204Z,8.30
2022-09-06T01:48:48.463Z,7.15
2022-09-06T01:51:22.034Z,8.07
2022-09-06T01:54:16.211Z,7.10
2022-09-06T01:57:03.549Z,8.50
2022-09-06T01:59:58.132Z,6.57
2022-09-06T02:02:45.020Z,5.85
2022-09-06T02:05:20.610Z,5.95
2022-09-06T02:07:50.897Z,7.30
2022-09-06T02:10:32.217Z,6.68
2022-09-06T02:13:14.296Z,6.35
2022-09-06T02:15:53.579Z,7.50
2022-09-06T02:18:34.228Z,6.25
2022-09-06T02:21:03.641Z,5.78
2022-09-06T02:23:35.411Z,9.38
2022-09-06T02:26:10.183Z,6.88
2022-09-06T02:28:39.958Z,6.65
2022-09-06T02:31:16.151Z,6.15
2022-09-06T02:33:46.301Z,6.95
2022-09-06T02:36:16.245Z,7.68
2022-09-06T02:38:45.273Z,7.95
2022-09-06T02:41:18.545Z,7.47
2022-09-06T02:43:45.224Z,5.15
2022-09-06T02:55:50.820Z,7.03
2022-09-06T02:58:37.792Z,7.03
2022-09-06T03:01:24.758Z,4.93
2022-09-06T03:23:43.095Z,5.47
2022-09-06T03:26:30.646Z,8.88
2022-09-06T03:29:20.008Z,5.38
2022-09-06T03:32:03.042Z,6.50
2022-09-06T03:34:29.741Z,4.57
2022-09-06T03:36:56.368Z,4.82
2022-09-06T03:39:23.033Z,5.75
2022-09-06T03:41:52.504Z,7.07
2022-09-06T03:44:27.932Z,5.40
2022-09-06T03:46:58.087Z,5.55
2022-09-06T03:49:28.225Z,5.03
2022-09-06T03:51:54.909Z,4.78
2022-09-06T03:54:21.596Z,5.20
2022-09-06T03:56:51.489Z,4.15
2022-09-06T03:59:18.182Z,5.68
2022-09-06T04:01:44.883Z,5.82
2022-09-06T04:04:11.809Z,4.60
2022-09-06T04:06:40.508Z,5.05
2022-09-06T04:09:10.944Z,5.03
2022-09-06T04:11:59.153Z,4.57
2022-09-06T04:14:46.092Z,4.20
2022-09-06T04:17:33.124Z,4.28
2022-09-06T04:20:20.431Z,5.40
2022-09-06T04:22:48.480Z,7.60
2022-09-06T04:25:15.938Z,4.30
2022-09-06T04:27:43.668Z,5.47
2022-09-06T04:30:10.655Z,3.83
2022-09-06T04:32:57.633Z,4.13
2022-09-06T04:35:49.138Z,4.05
2022-09-06T04:38:39.638Z,5.20
2022-09-06T04:41:26.566Z,4.75
2022-09-06T04:56:37.539Z,3.28
2022-09-06T04:59:24.567Z,3.05
2022-09-06T05:02:11.627Z,3.58
2022-09-06T05:04:57.180Z,6.13
2022-09-06T05:42:06.699Z,5.63
2022-09-06T05:44:37.640Z,5.43
2022-09-06T05:47:07.844Z,6.38
2022-09-06T05:49:34.691Z,4.80
2022-09-06T05:52:01.709Z,5.43
2022-09-06T05:54:28.423Z,6.93
2022-09-06T05:57:15.456Z,5.15
2022-09-06T06:00:02.677Z,5.22
2022-09-06T06:02:50.175Z,6.00
2022-09-06T06:05:37.215Z,4.97
2022-09-06T06:08:13.622Z,4.63
2022-09-06T06:10:40.707Z,5.25
2022-09-06T06:13:10.138Z,6.47
2022-09-06T06:15:36.767Z,4.95
2022-09-06T06:18:09.520Z,4.63
2022-09-06T06:20:36.143Z,6.35
2022-09-06T06:23:02.777Z,4.00
2022-09-06T06:25:29.420Z,5.70
2022-09-06T06:27:58.941Z,5.30
2022-09-06T06:30:27.412Z,5.07
2022-09-06T06:36:58.116Z,5.15
2022-09-06T06:39:45.807Z,7.32
2022-09-06T06:42:24.981Z,5.75
2022-09-06T07:22:10.491Z,4.97
2022-09-06T07:24:58.823Z,2.63
2022-09-06T07:30:37.739Z,6.75
2022-09-06T07:45:08.440Z,3.20
2022-09-06T07:48:00.022Z,3.25
2022-09-06T07:57:23.325Z,3.88
2022-09-06T07:59:50.258Z,4.63
2022-09-06T08:06:30.073Z,4.82
2022-09-06T08:09:17.043Z,5.22
2022-09-06T08:12:07.472Z,4.82
2022-09-06T08:15:17.896Z,4.65
2022-09-06T08:17:48.668Z,4.72
2022-09-06T08:20:15.948Z,5.43
2022-09-06T08:26:35.593Z,4.95
2022-09-06T08:37:05.756Z,4.40
2022-09-06T08:47:01.206Z,4.72
2022-09-06T08:54:26.315Z,4.60
2022-09-06T08:56:55.892Z,4.45
2022-09-06T08:59:23.152Z,6.53
2022-09-06T09:02:10.097Z,5.63
2022-09-06T09:04:42.588Z,5.63
2022-09-06T09:07:21.442Z,6.50
2022-09-06T09:09:48.903Z,4.65
2022-09-06T09:12:23.066Z,4.85
2022-09-06T09:14:53.891Z,4.43
2022-09-06T09:17:27.724Z,5.43
2022-09-06T09:19:55.571Z,4.13
2022-09-06T09:22:23.760Z,5.80
2022-09-06T09:24:52.583Z,6.32
2022-09-06T09:27:24.332Z,5.28
2022-09-06T09:32:43.225Z,7.05
2022-09-06T09:35:17.098Z,5.78
2022-09-06T09:40:18.945Z,5.35
2022-09-06T09:42:45.590Z,4.90
2022-09-06T09:45:38.671Z,5.28
2022-09-06T09:48:17.536Z,5.00
2022-09-06T09:50:44.322Z,4.40
2022-09-06T09:53:14.440Z,5.15
2022-09-06T09:55:42.922Z,6.05
2022-09-06T09:58:21.818Z,5.22
2022-09-06T10:00:49.358Z,4.13
2022-09-06T10:03:26.985Z,5.10
2022-09-06T10:06:02.410Z,5.65
2022-09-06T10:08:32.857Z,5.78
2022-09-06T10:10:59.548Z,5.28
2022-09-06T10:13:31.773Z,6.53
2022-09-06T10:16:00.710Z,4.32
2022-09-06T10:18:42.357Z,4.43
2022-09-06T10:21:19.850Z,4.18
2022-09-06T10:24:26.986Z,5.88
2022-09-06T10:27:01.036Z,4.82
2022-09-06T10:29:53.162Z,5.38
2022-09-06T10:35:11.577Z,4.80
2022-09-06T10:38:05.868Z,4.05
2022-09-06T10:40:41.319Z,4.80
2022-09-06T10:43:13.784Z,5.00
2022-09-06T10:46:03.010Z,6.47
2022-09-06T10:48:32.526Z,6.43
2022-09-06T10:51:36.668Z,7.30
2022-09-06T10:54:10.660Z,6.63
2022-09-06T10:56:45.501Z,4.78
2022-09-06T11:02:38.731Z,4.60
2022-09-06T11:11:07.798Z,4.75
2022-09-06T11:13:34.519Z,4.82
2022-09-06T11:16:11.361Z,4.97
2022-09-06T11:18:46.617Z,4.80
2022-09-06T11:21:35.018Z,5.60
2022-09-06T11:24:15.962Z,5.70
2022-09-06T11:27:01.539Z,4.03
2022-09-06T11:29:30.493Z,4.93
2022-09-06T11:34:54.450Z,5.63
2022-09-06T11:37:31.591Z,5.05
2022-09-06T11:40:27.297Z,4.40
2022-09-06T11:42:55.007Z,6.18
2022-09-06T11:45:51.389Z,4.82
2022-09-06T11:48:24.088Z,5.00
2022-09-06T11:50:53.820Z,6.25
2022-09-06T11:53:23.484Z,5.28
2022-09-06T11:56:02.217Z,6.18
2022-09-06T11:58:53.644Z,6.07
2022-09-06T12:01:20.856Z,6.07
2022-09-06T12:08:59.388Z,7.15
2022-09-06T12:11:30.380Z,8.38
2022-09-06T12:14:35.879Z,6.93
2022-09-06T12:17:04.778Z,5.28
2022-09-06T12:19:54.950Z,5.88
2022-09-06T12:22:30.314Z,6.85
2022-09-06T12:25:27.961Z,5.25
2022-09-06T12:27:57.889Z,7.32
2022-09-06T12:30:43.331Z,7.00
2022-09-06T12:33:24.831Z,8.55
2022-09-06T12:38:26.164Z,5.28
2022-09-06T12:40:58.355Z,7.30
2022-09-06T12:43:28.393Z,6.68
2022-09-06T12:45:59.453Z,6.80
2022-09-06T12:48:28.339Z,2.35
2022-09-06T12:51:13.630Z,3.33
2022-09-06T12:53:40.331Z,4.53
2022-09-06T12:56:10.122Z,5.85
2022-09-06T12:58:38.784Z,3.90
2022-09-06T13:01:27.382Z,6.65
2022-09-06T13:04:11.849Z,7.68
2022-09-06T13:06:46.352Z,4.55
2022-09-06T13:09:17.833Z,4.85
2022-09-06T13:11:48.943Z,9.52
2022-09-06T13:14:27.763Z,6.93
2022-09-06T13:16:57.756Z,5.97
2022-09-06T13:19:34.692Z,7.13
2022-09-06T13:22:03.980Z,6.82
2022-09-06T13:24:46.577Z,7.00
2022-09-06T13:27:24.126Z,6.00
2022-09-06T13:29:58.831Z,5.72
2022-09-06T13:32:29.279Z,6.57
2022-09-06T13:34:58.734Z,7.00
2022-09-06T13:37:31.555Z,6.82
2022-09-06T13:39:59.403Z,5.40
2022-09-06T13:42:35.939Z,5.50
2022-09-06T13:45:25.467Z,5.68
2022-09-06T13:48:03.239Z,5.70
2022-09-06T13:50:38.965Z,6.40
2022-09-06T13:53:05.588Z,6.43
2022-09-06T13:55:33.312Z,6.85
2022-09-06T13:58:00.025Z,7.95
2022-09-06T14:00:26.757Z,10.23
2022-09-06T14:02:55.492Z,5.82
2022-09-06T14:05:22.418Z,6.82
2022-09-06T14:07:49.062Z,6.10
2022-09-06T14:10:15.866Z,4.70
2022-09-06T14:12:42.628Z,6.82
2022-09-06T14:15:10.035Z,5.15
2022-09-06T14:17:36.763Z,5.70
2022-09-06T14:20:03.983Z,4.97
2022-09-06T14:22:30.752Z,5.88
2022-09-06T14:24:57.421Z,4.15
2022-09-06T14:27:24.415Z,5.20
2022-09-06T14:29:51.088Z,4.22
2022-09-06T14:32:22.519Z,3.15
2022-09-06T15:52:45.043Z,3.67
2022-09-06T15:55:30.439Z,3.45
2022-09-06T16:02:50.120Z,4.97
2022-09-06T16:05:17.460Z,2.55
2022-09-06T16:07:44.741Z,1.40
2022-09-06T16:10:12.390Z,2.45
2022-09-06T16:12:39.547Z,1.92
2022-09-06T16:15:07.154Z,3.50
2022-09-06T16:17:34.133Z,1.42
2022-09-06T16:20:01.677Z,1.58
2022-09-06T16:22:28.813Z,1.90
2022-09-06T16:24:55.465Z,1.38
2022-09-06T16:27:22.190Z,1.45
2022-09-06T16:29:48.853Z,1.20
2022-09-06T16:32:16.796Z,2.22
2022-09-06T16:34:43.958Z,1.50
2022-09-06T16:37:10.638Z,2.10
2022-09-06T16:39:38.665Z,1.20
2022-09-06T16:42:06.264Z,1.40
2022-09-06T16:44:32.907Z,1.17
2022-09-06T16:47:03.952Z,3.72
2022-09-06T16:49:30.584Z,1.37
2022-09-06T16:51:57.227Z,2.50
2022-09-06T16:54:23.908Z,1.58
2022-09-06T16:56:50.655Z,2.03
2022-09-06T16:59:17.433Z,2.25
2022-09-06T17:01:45.304Z,2.40
2022-09-06T17:04:13.062Z,1.77
2022-09-06T17:06:44.715Z,2.88
2022-09-06T17:09:15.878Z,2.15
2022-09-06T17:11:42.818Z,2.83
2022-09-06T17:14:09.717Z,2.40
2022-09-06T17:16:54.698Z,2.00
2022-09-06T17:19:21.365Z,1.80
2022-09-06T17:21:48.034Z,1.45
2022-09-06T17:24:14.839Z,1.20
2022-09-06T17:26:41.468Z,2.30
2022-09-06T17:29:09.260Z,1.73
2022-09-06T17:31:37.104Z,1.50
2022-09-06T17:34:04.624Z,2.28
2022-09-06T17:36:33.833Z,2.10
2022-09-06T17:39:06.926Z,1.95
2022-09-06T17:41:40.546Z,2.10
2022-09-06T17:44:12.183Z,2.13
2022-09-06T17:46:51.984Z,1.45
2022-09-06T17:49:27.209Z,1.73
2022-09-06T17:51:54.269Z,1.77
2022-09-06T17:54:20.960Z,1.60
2022-09-06T17:56:49.680Z,2.30
2022-09-06T17:59:16.376Z,5.32
2022-09-06T18:01:45.395Z,2.55
2022-09-06T18:04:13.300Z,1.33
2022-09-06T18:06:42.392Z,1.92
2022-09-06T18:09:14.584Z,1.80
2022-09-06T18:11:42.124Z,2.65
2022-09-06T18:14:11.843Z,2.03
2022-09-06T18:16:40.488Z,2.10
2022-09-06T18:19:08.821Z,2.13
2022-09-06T18:21:38.881Z,1.95
2022-09-06T18:24:05.917Z,2.42
2022-09-06T18:26:32.673Z,2.35
2022-09-06T18:28:59.616Z,2.50
2022-09-06T18:31:27.764Z,3.17
2022-09-06T18:33:58.069Z,3.33
2022-09-06T18:36:31.162Z,2.28
2022-09-06T18:39:02.837Z,2.80
2022-09-06T18:41:48.056Z,2.20
2022-09-06T18:44:14.987Z,1.67
2022-09-06T18:46:41.644Z,2.15
2022-09-06T18:49:08.432Z,2.13
2022-09-06T18:51:35.176Z,2.65
2022-09-06T18:54:02.328Z,2.13
2022-09-06T18:56:29.414Z,1.98
2022-09-06T18:58:58.743Z,2.88
2022-09-06T19:01:28.560Z,2.28
2022-09-06T19:03:59.117Z,2.40
2022-09-06T19:06:27.397Z,3.55
2022-09-06T19:08:54.450Z,2.38
2022-09-06T19:11:22.195Z,2.00
2022-09-06T19:13:54.124Z,2.97
2022-09-06T19:18:49.197Z,2.28
2022-09-06T19:21:20.000Z,1.63
2022-09-06T19:23:56.950Z,2.10
2022-09-06T19:26:24.591Z,2.50
2022-09-06T19:28:53.708Z,3.15
2022-09-06T19:31:21.102Z,1.88
2022-09-06T19:33:49.273Z,2.38
2022-09-06T19:36:17.294Z,2.40
2022-09-06T19:39:02.546Z,3.88
2022-09-06T19:41:31.378Z,2.25
2022-09-06T19:43:59.067Z,3.83
2022-09-06T19:46:26.656Z,2.65
2022-09-06T19:48:56.194Z,3.63
2022-09-06T19:51:24.302Z,2.35
2022-09-06T19:53:53.569Z,3.63
2022-09-06T19:56:26.401Z,2.88
2022-09-06T19:58:58.671Z,2.67
2022-09-06T20:01:29.233Z,2.97
2022-09-06T20:03:57.101Z,2.28
2022-09-06T20:06:23.984Z,2.83
2022-09-06T20:08:52.508Z,3.08
2022-09-06T20:11:20.994Z,2.85
2022-09-06T20:13:47.758Z,3.83
2022-09-06T20:16:14.901Z,3.33
2022-09-06T20:18:42.499Z,3.63
2022-09-06T20:21:09.862Z,4.72
2022-09-06T20:23:36.787Z,3.28
2022-09-06T20:26:09.722Z,2.83
2022-09-06T20:28:37.643Z,2.72
2022-09-06T20:31:09.582Z,2.97
2022-09-06T20:36:06.373Z,3.17
2022-09-06T20:38:35.719Z,4.40
2022-09-06T20:41:04.865Z,3.17
2022-09-06T20:43:36.678Z,2.90
2022-09-06T20:46:14.636Z,2.78
2022-09-06T20:48:44.681Z,2.97
2022-09-06T20:51:20.998Z,2.45
2022-09-06T20:53:59.149Z,3.47
2022-09-06T20:56:29.120Z,3.38
2022-09-06T20:59:01.499Z,3.28
2022-09-06T21:01:43.490Z,2.80
2022-09-06T21:04:12.509Z,3.13
2022-09-06T21:06:40.269Z,2.88
2022-09-06T21:09:13.230Z,3.30
2022-09-06T21:11:41.189Z,3.35
2022-09-06T21:14:09.403Z,3.72
2022-09-06T21:16:37.841Z,4.07
2022-09-06T21:19:06.545Z,3.38
2022-09-06T21:21:34.867Z,3.90
2022-09-06T21:24:03.081Z,3.28
2022-09-06T21:26:30.507Z,2.58
2022-09-06T21:28:57.608Z,3.33
2022-09-06T21:31:27.351Z,3.30
2022-09-06T21:33:56.784Z,3.83
2022-09-06T21:36:33.040Z,3.65
2022-09-06T21:39:09.642Z,3.47
2022-09-06T21:41:40.829Z,3.92
2022-09-06T21:44:08.557Z,4.07
2022-09-06T21:46:37.729Z,5.68
2022-09-06T21:49:07.481Z,5.53
2022-09-06T21:51:35.025Z,6.28
2022-09-06T21:54:05.972Z,4.90
2022-09-06T21:59:02.349Z,4.30
2022-09-06T22:01:33.005Z,4.30
2022-09-06T22:04:00.767Z,4.32
2022-09-06T22:06:29.446Z,4.32
2022-09-06T22:09:00.124Z,3.53
2022-09-06T22:11:32.402Z,2.95
2022-09-06T22:14:04.563Z,3.90
2022-09-06T22:16:33.769Z,3.35
2022-09-06T22:19:00.775Z,3.08
2022-09-06T22:21:27.751Z,3.60
2022-09-06T22:24:00.738Z,3.33
2022-09-06T22:26:29.701Z,2.80
2022-09-06T22:29:01.642Z,3.42
2022-09-06T22:31:30.586Z,3.70
2022-09-06T22:33:58.098Z,3.20
2022-09-06T22:36:25.613Z,4.25
2022-09-06T22:38:57.247Z,5.38
2022-09-06T22:41:30.018Z,4.45
2022-09-06T22:43:59.561Z,4.47
2022-09-06T22:46:26.536Z,4.45
2022-09-06T22:48:53.287Z,3.95
2022-09-06T22:51:19.931Z,5.90
2022-09-06T22:53:46.657Z,5.43
2022-09-06T22:56:13.344Z,4.30
2022-09-06T22:58:40.144Z,4.00
2022-09-06T23:01:12.764Z,4.00
2022-09-06T23:03:39.566Z,5.07
2022-09-06T23:06:06.731Z,4.15
2022-09-06T23:08:36.236Z,3.60
2022-09-06T23:11:08.454Z,4.47
2022-09-06T23:13:35.624Z,4.93
2022-09-06T23:16:10.286Z,4.93
2022-09-06T23:18:36.997Z,4.30
2022-09-06T23:21:08.071Z,5.35
2022-09-06T23:23:38.440Z,4.23
2022-09-06T23:26:17.184Z,3.90
2022-09-06T23:28:43.853Z,4.45
2022-09-06T23:31:14.053Z,4.13
2022-09-06T23:33:41.820Z,4.25
2022-09-06T23:36:12.173Z,4.72
2022-09-06T23:38:40.653Z,3.58
2022-09-06T23:41:08.768Z,4.57
2022-09-06T23:43:35.421Z,3.33
2022-09-06T23:46:02.171Z,4.90
2022-09-06T23:48:29.074Z,3.30
2022-09-06T23:50:55.805Z,4.40
2022-09-06T23:53:23.708Z,3.78
2022-09-06T23:55:50.413Z,3.28
2022-09-06T23:58:17.196Z,5.60
